Time;durP1;ratioP1;P1;durP2;ratioP2;P2;SDS_P1;SDS_P2;PMS_P1;PMS_P2;Temp;Humidity;BMP_temperature;BMP_pressure;BME280_temperature;BME280_humidity;BME280_pressure;Samples;Min_cycle;Max_cycle;Signal;HPM_P1;HPM_P2
2023/06/29 00:02:39;;;;;;;;;7.50;7.50;;;;;25.08;51.37;100498.44;146611;579;46016;-67
2023/06/29 00:05:45;;;;;;;;;7.67;7.67;;;;;25.04;52.11;100488.75;146618;624;46021;-66
2023/06/29 00:08:41;;;;;;;;;8.00;8.00;;;;;25.01;52.54;100491.44;146612;611;46016;-68
2023/06/29 00:11:48;;;;;;;;;8.75;8.75;;;;;24.97;52.65;100489.72;146617;641;46015;-68
2023/06/29 00:14:56;;;;;;;;;11.00;8.33;;;;;24.98;52.26;100480.84;146612;663;46012;-67
2023/06/29 00:17:55;;;;;;;;;8.00;7.00;;;;;24.96;52.93;100486.19;146616;576;46020;-67
2023/06/29 00:21:09;;;;;;;;;8.00;8.00;;;;;24.93;52.69;100488.88;146610;605;46017;-68
2023/06/29 00:24:11;;;;;;;;;11.75;10.00;;;;;24.94;53.06;100487.97;146615;633;46010;-69
2023/06/29 00:27:16;;;;;;;;;9.50;9.50;;;;;24.92;52.92;100488.88;146604;673;46017;-67
2023/06/29 00:30:37;;;;;;;;;8.67;8.00;;;;;22.99;51.39;100163.25;146616;602;46020;-67
2023/06/29 00:33:35;;;;;;;;;10.67;9.00;;;;;24.93;53.19;100493.31;146611;565;47020;-67
2023/06/29 00:36:42;;;;;;;;;11.25;9.00;;;;;24.91;52.76;100495.09;146612;573;47010;-68
2023/06/29 00:40:00;;;;;;;;;7.00;7.00;;;;;24.82;52.60;100504.91;146614;672;47012;-67
2023/06/29 00:42:59;;;;;;;;;6.00;6.00;;;;;24.77;52.23;100509.38;146616;570;47014;-68
2023/06/29 00:46:08;;;;;;;;;8.33;7.67;;;;;24.75;51.92;100499.69;146611;591;47012;-67
2023/06/29 00:49:07;;;;;;;;;9.33;8.67;;;;;24.74;52.17;100505.91;146616;575;46021;-66
2023/06/29 00:52:12;;;;;;;;;7.33;7.00;;;;;24.70;51.66;100507.66;146612;566;46016;-66
2023/06/29 00:55:37;;;;;;;;;8.33;7.67;;;;;24.63;51.94;100504.22;146614;567;46020;-66
2023/06/29 00:58:50;;;;;;;;;;;;;;;;;;;;;
2023/06/29 01:01:48;;;;;;;;;9.00;6.00;;;;;24.46;52.89;100503.50;146615;621;47008;-70
2023/06/29 01:04:52;;;;;;;;;7.00;6.00;;;;;24.36;53.26;100507.97;146613;688;46012;-70
2023/06/29 01:08:33;;;;;;;;;9.00;8.00;;;;;22.85;52.88;100266.44;146616;577;46010;-70
2023/06/29 01:11:30;;;;;;;;;8.33;8.00;;;;;24.19;53.61;100515.19;146610;570;46017;-71
2023/06/29 01:14:28;;;;;;;;;8.00;7.67;;;;;23.29;52.94;100366.66;146615;601;46020;-70
2023/06/29 01:17:27;;;;;;;;;12.33;7.67;;;;;24.12;52.92;100521.44;146611;565;46012;-70
2023/06/29 01:20:36;;;;;;;;;10.00;7.33;;;;;24.16;52.81;100517.84;146611;661;47020;-68
2023/06/29 01:23:58;;;;;;;;;;;;;;;;;;;;;
2023/06/29 01:27:25;;;;;;;;;9.67;7.00;;;;;24.20;52.46;100519.59;146615;590;47010;-68
2023/06/29 01:30:27;;;;;;;;;8.00;8.00;;;;;24.15;53.46;100516.97;146612;570;46016;-68
2023/06/29 01:33:28;;;;;;;;;6.33;6.33;;;;;24.10;53.50;100518.78;146607;600;46010;-68
2023/06/29 01:36:45;;;;;;;;;11.00;8.25;;;;;24.05;53.51;100525.91;146609;624;47012;-69
2023/06/29 01:39:52;;;;;;;;;8.75;7.50;;;;;24.04;53.53;100517.94;146613;668;47010;-69
2023/06/29 01:43:19;;;;;;;;;;;;;;;;;;;;;
2023/06/29 01:46:50;;;;;;;;;10.75;10.75;;;;;23.06;53.02;100342.13;146618;616;46014;-67
2023/06/29 01:49:43;;;;;;;;;9.00;9.00;;;;;24.12;55.11;100517.00;146604;625;46017;-67
2023/06/29 01:52:44;;;;;;;;;14.25;10.00;;;;;24.12;54.75;100518.78;146619;565;46020;-69
2023/06/29 01:55:45;;;;;;;;;10.67;10.00;;;;;24.13;55.07;100518.75;146605;616;46014;-68
2023/06/29 01:58:56;;;;;;;;;9.00;9.00;;;;;22.95;54.18;100315.72;146608;565;46010;-68
2023/06/29 02:02:18;;;;;;;;;12.00;11.33;;;;;22.34;54.12;100205.94;146612;566;47012;-67
2023/06/29 02:05:33;;;;;;;;;;;;;;;;;;;;;
2023/06/29 02:08:30;;;;;;;;;8.33;8.00;;;;;24.13;55.28;100521.41;146613;629;46016;-68
2023/06/29 02:11:26;;;;;;;;;10.00;8.33;;;;;24.05;54.87;100536.50;146617;634;46014;-68
2023/06/29 02:14:32;;;;;;;;;9.00;9.00;;;;;23.99;54.51;100525.94;146610;584;47012;-69
2023/06/29 02:17:40;;;;;;;;;;;;;;;;;;;;;
2023/06/29 02:20:52;;;;;;;;;9.00;9.00;;;;;23.94;54.39;100539.19;146608;720;47018;-70
2023/06/29 02:23:50;;;;;;;;;11.33;9.00;;;;;23.91;55.11;100533.91;146615;629;46020;-69
2023/06/29 02:26:47;;;;;;;;;6.67;6.67;;;;;23.90;55.12;100537.47;146613;639;46012;-70
2023/06/29 02:29:52;;;;;;;;;9.33;9.33;;;;;23.88;54.92;100541.87;146614;582;47010;-68
2023/06/29 02:32:49;;;;;;;;;10.00;8.33;;;;;23.88;55.05;100538.34;146608;623;47014;-68
2023/06/29 02:35:42;;;;;;;;;7.00;6.33;;;;;23.90;54.98;100548.06;146603;570;46020;-69
2023/06/29 02:38:39;;;;;;;;;10.00;9.00;;;;;23.93;54.82;100550.69;146608;678;47012;-68
2023/06/29 02:41:34;;;;;;;;;9.00;9.00;;;;;23.87;55.45;100539.25;146617;569;46020;-67
2023/06/29 02:44:30;;;;;;;;;9.00;9.00;;;;;23.91;55.03;100552.44;146612;633;47012;-69
2023/06/29 02:47:41;;;;;;;;;8.67;8.67;;;;;23.93;54.77;100555.09;146616;646;47010;-69
2023/06/29 02:50:36;;;;;;;;;8.00;8.00;;;;;23.95;54.67;100556.84;146612;622;46913;-69
2023/06/29 02:53:48;;;;;;;;;9.33;8.33;;;;;23.91;54.20;100557.75;146613;596;46020;-70
2023/06/29 02:56:55;;;;;;;;;10.00;8.67;;;;;23.85;55.08;100554.25;146613;663;46033;-69
2023/06/29 02:59:55;;;;;;;;;9.67;9.00;;;;;23.80;55.85;100561.34;146615;586;46014;-69
2023/06/29 03:03:01;;;;;;;;;9.33;8.33;;;;;23.66;55.56;100556.97;146610;581;46034;-70
2023/06/29 03:06:19;;;;;;;;;7.00;7.00;;;;;23.58;55.67;100555.25;146604;618;46010;-70
2023/06/29 03:09:19;;;;;;;;;8.33;8.33;;;;;23.54;55.80;100554.38;146610;612;46912;-70
2023/06/29 03:12:14;;;;;;;;;10.33;10.33;;;;;23.50;56.86;100558.81;146617;636;46010;-70
2023/06/29 03:15:06;;;;;;;;;11.75;9.25;;;;;23.45;56.21;100557.06;146606;649;46016;-70
2023/06/29 03:18:01;;;;;;;;;11.00;10.00;;;;;23.43;56.65;100559.75;146617;611;46021;-69
2023/06/29 03:20:54;;;;;;;;;11.00;9.67;;;;;23.41;56.50;100553.56;146605;598;46012;-70
2023/06/29 03:24:02;;;;;;;;;11.00;9.00;;;;;23.41;56.24;100556.22;146615;588;46010;-70
2023/06/29 03:27:08;;;;;;;;;9.00;6.67;;;;;23.41;56.91;100555.34;146611;614;47012;-70
2023/06/29 03:30:03;;;;;;;;;8.00;7.67;;;;;23.44;56.78;100557.97;146616;643;47010;-68
2023/06/29 03:33:12;;;;;;;;;8.00;8.00;;;;;23.45;56.94;100565.00;146612;578;46016;-69
2023/06/29 03:36:19;;;;;;;;;;;;;;;;;;;;;
2023/06/29 03:39:15;;;;;;;;;10.00;9.00;;;;;23.46;57.57;100572.97;146613;590;46016;-69
2023/06/29 03:42:18;;;;;;;;;9.67;9.00;;;;;23.51;57.06;100572.94;146615;571;47010;-68
2023/06/29 03:45:33;;;;;;;;;;;;;;;;;;;;;
2023/06/29 03:48:50;;;;;;;;;9.67;9.33;;;;;23.75;55.92;100579.91;146616;616;46020;-69
2023/06/29 03:52:04;;;;;;;;;9.00;8.67;;;;;23.89;56.25;100577.19;146609;570;46016;-68
2023/06/29 03:55:18;;;;;;;;;9.00;8.00;;;;;22.07;55.24;100262.34;146616;655;46021;-69
2023/06/29 03:58:14;;;;;;;;;10.00;7.33;;;;;24.03;56.60;100591.22;146611;569;46016;-70
2023/06/29 04:01:38;;;;;;;;;10.00;9.50;;;;;24.10;55.94;100586.78;146617;592;46010;-68
2023/06/29 04:05:26;;;;;;;;;11.75;8.00;;;;;23.04;55.20;100400.31;146611;595;46012;-67
2023/06/29 04:08:32;;;;;;;;;;;;;;;;;;;;;
2023/06/29 04:11:31;;;;;;;;;9.00;8.50;;;;;24.26;57.71;100593.72;146605;571;46035;-67
2023/06/29 04:14:28;;;;;;;;;8.67;8.33;;;;;24.33;57.45;100589.25;146615;587;46029;-67
2023/06/29 04:17:26;;;;;;;;;8.33;6.67;;;;;24.42;57.82;100595.44;146612;590;46012;-67
2023/06/29 04:20:28;;;;;;;;;8.75;7.00;;;;;24.54;58.22;100599.72;146615;659;46020;-68
2023/06/29 04:23:43;;;;;;;;;11.00;7.33;;;;;24.69;58.07;100608.47;146613;574;46016;-68
2023/06/29 04:26:47;;;;;;;;;10.33;8.00;;;;;24.85;57.42;100616.25;146615;605;46020;-68
2023/06/29 04:29:45;;;;;;;;;8.00;8.00;;;;;25.04;56.75;100616.06;146611;594;46017;-68
2023/06/29 04:32:44;;;;;;;;;7.00;6.33;;;;;25.20;56.07;100615.06;146616;578;46010;-68
2023/06/29 04:35:41;;;;;;;;;8.33;8.33;;;;;25.38;56.67;100611.31;146612;630;46016;-68
2023/06/29 04:38:34;;;;;;;;;10.00;9.33;;;;;25.54;57.03;100619.97;146605;626;46021;-68
2023/06/29 04:42:00;;;;;;;;;10.33;9.00;;;;;25.74;56.32;100627.72;146611;586;47012;-68
2023/06/29 04:45:06;;;;;;;;;9.67;7.67;;;;;25.96;56.59;100641.63;146616;594;46020;-67
2023/06/29 04:48:16;;;;;;;;;9.67;9.33;;;;;26.15;55.71;100635.16;146611;646;46014;-68
2023/06/29 04:51:19;;;;;;;;;10.00;8.67;;;;;26.29;55.34;100640.25;146616;569;46010;-68
2023/06/29 04:54:19;;;;;;;;;10.50;7.25;;;;;26.47;54.79;100641.78;146609;699;47012;-66
2023/06/29 04:57:17;;;;;;;;;12.00;10.67;;;;;26.61;56.27;100650.47;146616;678;46010;-69
2023/06/29 05:00:32;;;;;;;;;11.33;10.33;;;;;26.79;54.27;100654.59;146606;710;46016;-68
2023/06/29 05:03:48;;;;;;;;;9.00;7.67;;;;;26.97;53.23;100655.19;146609;576;47010;-67
2023/06/29 05:06:47;;;;;;;;;8.67;8.67;;;;;27.15;54.60;100655.75;146613;643;46016;-68
2023/06/29 05:09:40;;;;;;;;;8.67;8.67;;;;;27.31;54.07;100667.00;146605;652;47010;-69
2023/06/29 05:12:42;;;;;;;;;12.00;9.00;;;;;27.49;53.36;100670.25;146613;650;47014;-69
2023/06/29 05:15:39;;;;;;;;;12.00;10.00;;;;;27.60;53.04;100668.22;146615;668;46021;-69
2023/06/29 05:18:49;;;;;;;;;7.67;7.67;;;;;26.75;51.44;100511.03;146604;577;46012;-70
2023/06/29 05:21:53;;;;;;;;;10.50;10.50;;;;;27.63;51.47;100655.75;146616;582;46021;-67
2023/06/29 05:25:01;;;;;;;;;10.00;9.00;;;;;26.20;51.17;100390.56;146603;565;47012;-67
2023/06/29 05:27:58;;;;;;;;;8.00;8.00;;;;;28.04;52.79;100680.69;146615;598;47010;-67
2023/06/29 05:30:56;;;;;;;;;12.25;10.50;;;;;28.25;51.77;100691.78;146609;691;47014;-67
2023/06/29 05:33:38;;;;;;;;;11.25;10.00;;;;;28.40;52.35;100703.88;146714;565;45014;-67
2023/06/29 05:36:34;;;;;;;;;8.50;8.50;;;;;28.51;52.14;100697.44;146621;564;46017;-68
2023/06/29 05:39:43;;;;;;;;;9.67;8.33;;;;;28.68;50.68;100697.03;146624;571;46012;-67
2023/06/29 05:42:44;;;;;;;;;8.33;7.33;;;;;28.83;51.43;100702.91;146618;577;47027;-69
2023/06/29 05:45:44;;;;;;;;;9.33;8.67;;;;;28.92;49.91;100708.91;146624;631;46010;-67
2023/06/29 05:48:44;;;;;;;;;12.25;10.25;;;;;28.99;49.88;100713.16;146615;584;47016;-68
2023/06/29 05:51:42;;;;;;;;;8.67;8.67;;;;;28.98;50.48;100708.75;146616;573;46014;-68
2023/06/29 05:55:03;;;;;;;;;10.75;10.00;;;;;29.07;50.67;100710.34;146619;709;46012;-68
2023/06/29 05:58:10;;;;;;;;;11.67;10.00;;;;;29.09;49.90;100716.50;146615;596;46022;-67
2023/06/29 06:01:04;;;;;;;;;11.25;10.50;;;;;29.10;50.40;100722.75;146613;618;46016;-69
2023/06/29 06:04:02;;;;;;;;;11.75;11.75;;;;;29.10;50.98;100725.41;146613;575;47010;-67
2023/06/29 06:07:03;;;;;;;;;10.67;9.67;;;;;29.12;50.09;100728.91;146613;583;46016;-67
2023/06/29 06:09:57;;;;;;;;;12.00;10.75;;;;;29.17;49.74;100721.66;146621;569;46028;-69
2023/06/29 06:12:52;;;;;;;;;12.25;10.00;;;;;29.21;49.60;100736.69;146611;627;47012;-67
2023/06/29 06:16:01;;;;;;;;;10.75;8.50;;;;;29.23;48.61;100742.88;146615;613;46020;-68
2023/06/29 06:19:14;;;;;;;;;12.50;11.50;;;;;29.19;48.92;100754.53;146620;637;46017;-69
2023/06/29 06:22:16;;;;;;;;;10.75;9.50;;;;;29.15;49.56;100755.53;146617;687;46010;-68
2023/06/29 06:25:35;;;;;;;;;12.33;10.00;;;;;27.39;49.61;100459.19;146618;606;47014;-67
2023/06/29 06:28:42;;;;;;;;;9.67;8.00;;;;;29.09;50.15;100753.00;146615;613;46014;-67
2023/06/29 06:31:56;;;;;;;;;8.67;8.67;;;;;29.07;51.33;100758.41;146620;586;46032;-65
2023/06/29 06:35:12;;;;;;;;;9.33;8.33;;;;;27.37;50.09;100464.53;146623;574;46021;-68
2023/06/29 06:38:20;;;;;;;;;11.67;9.00;;;;;29.10;50.33;100754.78;146618;576;46912;-68
2023/06/29 06:41:22;;;;;;;;;10.00;8.33;;;;;29.13;50.12;100752.00;146625;564;46020;-67
2023/06/29 06:44:21;;;;;;;;;8.67;8.67;;;;;29.20;50.42;100754.50;146621;579;47012;-67
2023/06/29 06:47:28;;;;;;;;;11.00;9.25;;;;;29.23;48.98;100758.91;146623;652;46010;-67
2023/06/29 06:50:54;;;;;;;;;12.33;12.00;;;;;29.32;49.03;100760.47;146617;694;46032;-68
2023/06/29 06:54:01;;;;;;;;;9.25;8.00;;;;;29.41;48.49;100761.09;146617;563;46010;-68
2023/06/29 06:57:25;;;;;;;;;9.67;9.33;;;;;29.48;47.86;100772.50;146620;593;47014;-68
2023/06/29 07:00:38;;;;;;;;;8.67;8.67;;;;;29.50;47.10;100756.41;146624;667;46020;-69
2023/06/29 07:03:35;;;;;;;;;8.67;8.00;;;;;29.56;46.74;100765.13;146615;585;47017;-68
2023/06/29 07:06:57;;;;;;;;;8.67;8.67;;;;;29.62;46.26;100767.69;146624;605;46020;-70
2023/06/29 07:10:01;;;;;;;;;8.25;7.75;;;;;29.67;45.93;100767.56;146618;619;47012;-68
2023/06/29 07:12:58;;;;;;;;;9.00;9.00;;;;;29.70;46.32;100762.13;146625;591;46020;-68
2023/06/29 07:15:55;;;;;;;;;10.00;9.00;;;;;29.76;45.68;100770.00;146618;591;46016;-68
2023/06/29 07:19:34;;;;;;;;;;;;;;;;;;;;;
2023/06/29 07:22:33;;;;;;;;;9.00;8.00;;;;;29.93;46.09;100765.03;146621;563;46016;-67
2023/06/29 07:25:21;;;;;;;;;11.75;11.75;;;;;30.08;46.11;100761.06;146712;565;46012;-68
2023/06/29 07:28:21;;;;;;;;;9.00;9.00;;;;;30.22;45.26;100759.81;146617;709;46012;-68
2023/06/29 07:31:20;;;;;;;;;11.00;10.00;;;;;30.32;45.16;100767.53;146625;657;46021;-68
2023/06/29 07:34:23;;;;;;;;;9.33;8.00;;;;;30.44;44.58;100766.28;146617;624;47014;-69
2023/06/29 07:37:21;;;;;;;;;10.00;9.00;;;;;30.53;43.99;100766.00;146624;611;46012;-69
2023/06/29 07:40:21;;;;;;;;;11.75;10.00;;;;;30.59;44.01;100764.91;146623;605;46016;-67
2023/06/29 07:43:19;;;;;;;;;9.00;9.00;;;;;30.62;43.45;100767.50;146622;565;46010;-68
2023/06/29 07:46:11;;;;;;;;;11.00;10.33;;;;;30.65;44.13;100769.22;146621;565;46016;-67
2023/06/29 07:49:09;;;;;;;;;10.67;9.00;;;;;30.69;44.04;100769.09;146623;693;46010;-68
2023/06/29 07:52:24;;;;;;;;;6.75;5.50;;;;;30.74;43.82;100760.88;146624;571;46014;-68
2023/06/29 07:55:32;;;;;;;;;;;;;;;;;;;;;
2023/06/29 07:58:54;;;;;;;;;10.67;10.67;;;;;30.68;44.59;100747.69;146625;603;46012;-68
2023/06/29 08:02:03;;;;;;;;;11.33;10.67;;;;;30.79;43.40;100772.37;146609;656;48010;-69
2023/06/29 08:05:09;;;;;;;;;9.75;8.75;;;;;30.87;43.06;100780.16;146617;586;46913;-69
2023/06/29 08:08:16;;;;;;;;;10.33;9.33;;;;;30.92;43.91;100780.88;146628;670;46010;-69
2023/06/29 08:11:18;;;;;;;;;9.00;8.67;;;;;30.88;43.48;100781.91;146625;578;46913;-68
2023/06/29 08:14:14;;;;;;;;;13.67;11.33;;;;;30.83;42.88;100788.28;146629;600;46020;-68
2023/06/29 08:17:10;;;;;;;;;10.75;10.50;;;;;30.78;42.72;100784.88;146615;570;46014;-69
2023/06/29 08:20:14;;;;;;;;;9.67;8.67;;;;;29.98;42.96;100638.41;146615;579;47010;-68
2023/06/29 08:23:10;;;;;;;;;9.00;8.33;;;;;30.88;42.76;100780.13;146624;614;46012;-69
2023/06/29 08:26:04;;;;;;;;;10.00;7.25;;;;;30.94;41.98;100782.59;146619;612;47010;-67
2023/06/29 08:29:02;;;;;;;;;10.00;8.25;;;;;31.04;42.00;100789.41;146614;612;46017;-68
2023/06/29 08:32:00;;;;;;;;;9.00;8.00;;;;;31.08;42.53;100786.63;146622;673;46010;-69
2023/06/29 08:35:02;;;;;;;;;10.25;10.25;;;;;31.12;43.36;100782.91;146616;563;46012;-68
2023/06/29 08:38:04;;;;;;;;;10.33;8.33;;;;;31.19;42.50;100774.62;146615;612;46014;-68
2023/06/29 08:41:03;;;;;;;;;12.00;10.00;;;;;31.29;42.17;100784.09;146616;704;47012;-69
2023/06/29 08:44:03;;;;;;;;;11.00;10.33;;;;;31.35;42.36;100787.53;146615;676;46011;-68
2023/06/29 08:47:15;;;;;;;;;9.33;8.67;;;;;31.34;42.43;100789.34;146613;695;46014;-68
2023/06/29 08:50:31;;;;;;;;;9.33;8.00;;;;;30.63;43.17;100659.53;146621;574;46010;-70
2023/06/29 08:53:41;;;;;;;;;9.67;8.33;;;;;31.44;43.31;100788.09;146619;590;46012;-68
2023/06/29 08:56:36;;;;;;;;;9.00;9.00;;;;;31.46;41.92;100793.37;146622;602;47010;-68
2023/06/29 08:59:44;;;;;;;;;12.00;10.50;;;;;31.41;42.54;100782.84;146616;729;46016;-68
2023/06/29 09:02:45;;;;;;;;;9.33;7.67;;;;;31.34;42.94;100785.78;146615;564;46020;-69
2023/06/29 09:19:34;;;;;;;;;11.50;11.50;;;;;31.47;44.26;100781.75;146653;561;45022;-68
2023/06/29 09:22:44;;;;;;;;;9.75;9.50;;;;;31.50;44.62;100784.34;146632;702;45938;-67
2023/06/29 09:26:02;;;;;;;;;8.75;8.75;;;;;31.50;44.96;100787.03;146640;564;45020;-67
2023/06/29 09:29:03;;;;;;;;;11.25;10.25;;;;;31.45;45.06;100784.47;146634;576;47010;-68
2023/06/29 09:32:06;;;;;;;;;8.50;7.00;;;;;31.35;44.61;100788.41;146632;710;45021;-68
2023/06/29 09:35:25;;;;;;;;;11.00;9.00;;;;;29.60;45.06;100513.00;146635;673;45010;-67
2023/06/29 09:38:37;;;;;;;;;12.50;10.25;;;;;31.21;44.36;100783.47;146639;625;46008;-68
2023/06/29 09:41:36;;;;;;;;;9.75;9.75;;;;;31.24;44.53;100785.19;146628;605;45914;-67
2023/06/29 09:44:45;;;;;;;;;12.00;11.50;;;;;31.32;43.66;100791.16;146631;578;47008;-69
2023/06/29 09:47:53;;;;;;;;;11.25;10.50;;;;;31.42;43.68;100789.06;146631;629;46008;-69
2023/06/29 09:50:54;;;;;;;;;8.25;8.25;;;;;31.50;43.27;100785.22;146635;558;45021;-67
2023/06/29 09:53:49;;;;;;;;;11.00;10.00;;;;;31.54;42.13;100796.69;146638;579;45915;-66
2023/06/29 09:56:42;;;;;;;;;14.00;10.50;;;;;31.61;42.57;100792.00;146635;654;45020;-68
2023/06/29 09:59:35;;;;;;;;;10.75;9.00;;;;;31.65;42.19;100797.22;146634;615;45012;-67
2023/06/29 10:02:42;;;;;;;;;10.25;9.50;;;;;31.69;42.67;100782.75;146643;606;45020;-68
2023/06/29 10:05:39;;;;;;;;;8.50;7.25;;;;;31.77;42.52;100789.66;146637;678;45016;-67
2023/06/29 10:08:58;;;;;;;;;10.00;9.75;;;;;31.84;41.88;100786.72;146640;647;45008;-67
2023/06/29 10:12:12;;;;;;;;;;;;;;;;;;;;;
2023/06/29 10:15:23;;;;;;;;;9.00;7.67;;;;;32.08;42.96;100795.66;146643;694;45021;-68
2023/06/29 10:18:28;;;;;;;;;10.50;9.75;;;;;32.18;41.57;100791.75;146625;616;47010;-69
2023/06/29 10:21:39;;;;;;;;;9.00;8.33;;;;;32.21;42.44;100788.03;146620;695;46020;-68
2023/06/29 10:24:48;;;;;;;;;9.33;9.33;;;;;32.22;42.49;100783.56;146617;583;46012;-68
2023/06/29 10:27:49;;;;;;;;;10.25;9.75;;;;;32.13;41.86;100779.44;146618;597;46020;-68
2023/06/29 10:31:02;;;;;;;;;11.00;10.75;;;;;30.72;42.58;100548.63;146616;573;45912;-67
2023/06/29 10:33:57;;;;;;;;;10.00;10.00;;;;;32.05;41.87;100770.78;146609;704;48008;-67
2023/06/29 10:37:06;;;;;;;;;9.25;9.25;;;;;31.06;43.09;100605.44;146608;591;47012;-68
2023/06/29 10:40:22;;;;;;;;;10.00;8.25;;;;;32.07;42.06;100767.09;146621;610;46008;-67
2023/06/29 10:43:20;;;;;;;;;12.00;11.25;;;;;32.09;42.24;100770.62;146616;572;46912;-68
2023/06/29 10:46:22;;;;;;;;;;;;;;;;;;;;;
2023/06/29 10:49:45;;;;;;;;;10.33;8.33;;;;;30.93;42.77;100580.00;146613;578;46016;-67
2023/06/29 10:52:45;;;;;;;;;9.00;9.00;;;;;31.21;41.40;100625.44;146622;578;46027;-67
2023/06/29 10:56:07;;;;;;;;;7.75;7.50;;;;;31.26;42.36;100623.47;146614;683;46016;-68
2023/06/29 10:59:21;;;;;;;;;11.00;8.75;;;;;32.04;40.47;100756.50;146619;658;46008;-67
2023/06/29 11:02:18;;;;;;;;;10.50;9.75;;;;;32.03;40.69;100760.13;146615;712;47010;-68
2023/06/29 11:05:35;;;;;;;;;10.50;10.25;;;;;32.02;41.50;100757.47;146621;652;46008;-67
2023/06/29 11:08:38;;;;;;;;;11.75;10.00;;;;;31.98;41.59;100751.34;146611;632;46010;-68
2023/06/29 11:11:50;;;;;;;;;9.50;9.25;;;;;31.93;40.51;100747.97;146614;590;46022;-68
2023/06/29 11:14:49;;;;;;;;;10.00;9.33;;;;;31.89;42.77;100754.38;146615;571;47011;-68
2023/06/29 11:17:59;;;;;;;;;10.75;10.75;;;;;31.87;41.62;100758.87;146619;638;46008;-68
2023/06/29 11:21:08;;;;;;;;;9.50;9.50;;;;;31.80;42.31;100754.69;146607;690;46017;-67
2023/06/29 11:24:13;;;;;;;;;10.25;8.00;;;;;31.79;42.08;100759.16;146621;710;47008;-69
2023/06/29 11:27:11;;;;;;;;;9.25;9.25;;;;;31.80;42.59;100757.34;146615;601;47914;-67
2023/06/29 11:30:13;;;;;;;;;9.67;9.67;;;;;31.78;41.63;100754.75;146620;628;46021;-66
2023/06/29 11:33:21;;;;;;;;;9.00;9.00;;;;;31.73;42.87;100749.53;146612;573;46016;-67
2023/06/29 11:36:25;;;;;;;;;10.25;10.25;;;;;31.70;41.00;100757.69;146617;605;46021;-67
2023/06/29 11:39:17;;;;;;;;;8.33;7.00;;;;;31.70;42.51;100748.78;146612;655;46016;-67
2023/06/29 11:42:35;;;;;;;;;9.67;8.33;;;;;30.44;43.00;100554.94;146622;596;46021;-68
2023/06/29 11:45:35;;;;;;;;;10.33;10.33;;;;;31.40;43.61;100750.72;146616;614;46010;-68
2023/06/29 11:49:03;;;;;;;;;10.00;9.00;;;;;29.61;43.36;100452.44;146615;563;47008;-69
2023/06/29 11:52:03;;;;;;;;;9.33;7.67;;;;;31.27;43.74;100735.03;146617;569;46912;-68
2023/06/29 11:54:55;;;;;;;;;9.50;9.50;;;;;31.30;43.81;100731.38;146615;565;46020;-67
2023/06/29 11:58:12;;;;;;;;;;;;;;;;;;;;;
2023/06/29 12:01:20;;;;;;;;;7.67;7.00;;;;;30.45;43.61;100593.25;146618;574;46023;-67
2023/06/29 12:04:16;;;;;;;;;8.50;7.75;;;;;31.23;43.19;100743.25;146618;714;46016;-68
2023/06/29 12:07:21;;;;;;;;;6.00;6.00;;;;;31.18;42.87;100747.88;146620;570;46021;-66
2023/06/29 12:10:33;;;;;;;;;10.25;8.00;;;;;31.08;42.57;100736.59;146615;564;47010;-67
2023/06/29 12:13:32;;;;;;;;;8.00;7.67;;;;;31.03;42.00;100728.75;146622;569;47008;-66
2023/06/29 12:16:43;;;;;;;;;9.00;7.00;;;;;30.97;43.03;100733.44;146619;569;46010;-68
2023/06/29 12:19:58;;;;;;;;;9.75;8.75;;;;;30.79;42.52;100713.47;146622;691;46021;-66
2023/06/29 12:22:54;;;;;;;;;7.67;7.67;;;;;30.91;42.41;100728.28;146617;629;47909;-67
2023/06/29 12:26:16;;;;;;;;;;;;;;;;;;;;;
2023/06/29 12:29:20;;;;;;;;;7.25;7.25;;;;;30.88;42.35;100710.50;146614;571;46016;-67
2023/06/29 12:32:14;;;;;;;;;8.00;8.00;;;;;30.89;42.13;100717.59;146621;579;46020;-67
2023/06/29 12:35:11;;;;;;;;;11.00;10.33;;;;;31.01;41.84;100716.31;146614;576;46016;-67
2023/06/29 12:38:22;;;;;;;;;6.00;6.00;;;;;31.08;43.49;100719.66;146612;586;46038;-67
2023/06/29 12:56:03;;;;;;;;;13.75;11.25;;;;;30.03;42.47;100542.88;146642;571;45022;-68
2023/06/29 12:59:54;;;;;;;;;9.25;8.00;;;;;30.80;42.81;100691.13;146613;564;47935;-68
2023/06/29 13:03:25;;;;;;;;;8.75;8.75;;;;;30.72;43.73;100679.78;146627;636;45020;-67
2023/06/29 13:06:44;;;;;;;;;10.00;8.67;;;;;30.68;44.12;100659.38;146624;658;45911;-67
2023/06/29 13:10:05;;;;;;;;;9.75;8.50;;;;;31.02;43.29;100696.62;146627;570;45020;-68
2023/06/29 13:14:15;;;;;;;;;;;;;;;;;;;;;
2023/06/29 13:17:55;;;;;;;;;11.00;10.33;;;;;30.95;42.58;100655.81;146628;570;45020;-69
2023/06/29 13:21:24;;;;;;;;;10.00;10.00;;;;;31.32;43.14;100691.16;146617;578;45913;-68
2023/06/29 13:24:55;;;;;;;;;8.67;8.00;;;;;31.44;42.71;100685.41;146621;569;45020;-67
2023/06/29 13:29:05;;;;;;;;;;;;;;;;;;;;;
2023/06/29 13:33:10;;;;;;;;;;;;;;;;;;;;;
2023/06/29 13:37:34;;;;;;;;;;;;;;;;;;;;;
2023/06/29 13:45:24;;;;;;;;;6.67;6.67;;;;;31.29;42.63;100679.62;146623;588;45913;-67
2023/06/29 13:49:02;;;;;;;;;9.75;9.00;;;;;31.18;42.89;100678.25;146627;586;45020;-67
2023/06/29 13:57:05;;;;;;;;;;;;;;;;;;;;;
2023/06/29 14:01:00;;;;;;;;;6.00;6.00;;;;;29.68;44.56;100545.72;146644;624;44915;-67
2023/06/29 14:08:26;;;;;;;;;;;;;;;;;;;;;
2023/06/29 14:12:41;;;;;;;;;7.00;6.67;;;;;29.15;46.76;100557.94;146646;578;45020;-67
2023/06/29 14:20:23;;;;;;;;;;;;;;;;;;;;;
2023/06/29 14:24:05;;;;;;;;;7.33;6.00;;;;;29.79;47.06;100719.13;146645;594;45912;-66
2023/06/29 14:27:35;;;;;;;;;9.33;8.33;;;;;29.64;47.43;100712.41;146649;578;44020;-67
2023/06/29 14:31:04;;;;;;;;;8.67;6.00;;;;;29.57;46.27;100713.47;146641;636;45916;-66
2023/06/29 14:34:49;;;;;;;;;7.67;6.33;;;;;29.12;46.19;100641.66;146649;676;44022;-68
2023/06/29 14:38:14;;;;;;;;;7.00;7.00;;;;;29.44;46.82;100706.72;146645;574;44916;-68
2023/06/29 14:42:01;;;;;;;;;8.00;8.00;;;;;28.52;46.46;100575.59;146650;573;44020;-67
2023/06/29 14:45:57;;;;;;;;;;;;;;;;;;;;;
2023/06/29 14:49:42;;;;;;;;;7.00;7.00;;;;;29.60;48.20;100718.72;146650;570;44020;-66
2023/06/29 14:53:20;;;;;;;;;;;;;;;;;;;;;
2023/06/29 14:57:04;;;;;;;;;8.33;6.33;;;;;28.75;47.55;100575.91;146628;571;45022;-65
2023/06/29 15:08:22;;;;;;;;;;;;;;;;;;;;;
2023/06/29 15:16:01;;;;;;;;;5.33;5.33;;;;;28.85;47.12;100726.00;146622;666;45911;-65
2023/06/29 15:20:05;;;;;;;;;;;;;;;;;;;;;
2023/06/29 15:27:03;;;;;;;;;11.67;9.67;;;;;28.65;47.37;100744.25;146625;564;45020;-65
2023/06/29 15:31:16;;;;;;;;;9.33;8.67;;;;;27.42;48.12;100530.16;146624;571;45913;-68
2023/06/29 15:34:40;;;;;;;;;7.67;7.67;;;;;28.64;49.49;100739.84;146628;569;45020;-65
2023/06/29 15:38:54;;;;;;;;;;;;;;;;;;;;;
2023/06/29 15:42:17;;;;;;;;;6.00;5.67;;;;;28.41;49.01;100737.66;146625;648;45021;-66
2023/06/29 15:45:51;;;;;;;;;10.00;7.67;;;;;27.38;48.86;100588.78;146623;668;45914;-68
2023/06/29 15:49:07;;;;;;;;;7.00;7.00;;;;;28.23;48.50;100737.16;146626;579;45022;-68
2023/06/29 15:52:34;;;;;;;;;;;;;;;;;;;;;
2023/06/29 15:56:21;;;;;;;;;;;;;;;;;;;;;
2023/06/29 15:59:47;;;;;;;;;6.00;5.00;;;;;27.09;48.98;100591.97;146648;575;44912;-66
2023/06/29 16:07:01;;;;;;;;;5.00;5.00;;;;;27.96;49.28;100746.59;146647;650;44915;-69
2023/06/29 16:14:21;;;;;;;;;5.00;5.00;;;;;27.75;49.38;100762.97;146646;631;44913;-68
2023/06/29 16:22:32;;;;;;;;;5.00;4.67;;;;;26.08;50.18;100508.63;146647;585;44909;-66
2023/06/29 16:26:19;;;;;;;;;7.00;6.00;;;;;27.62;50.66;100787.16;146649;598;44022;-66
2023/06/29 16:29:55;;;;;;;;;3.67;3.67;;;;;26.56;50.38;100608.88;146647;598;45909;-66
2023/06/29 16:33:31;;;;;;;;;;;;;;;;;;;;;
2023/06/29 16:40:45;;;;;;;;;6.67;5.00;;;;;27.59;53.50;100794.31;146648;581;44022;-65
2023/06/29 16:48:29;;;;;;;;;;;;;;;;;;;;;
2023/06/29 16:56:38;;;;;;;;;5.00;5.00;;;;;27.55;55.08;100797.97;146648;597;44021;-68
2023/06/29 16:59:54;;;;;;;;;5.33;5.33;;;;;27.48;55.15;100806.97;146647;611;44914;-67